sensor_id;sensor_type;location;lat;lon;timestamp;temperature;humidity
52044;DHT22;38053;53.100;6.078;2023-02-19T09:55:42;6.90;99.90
52044;DHT22;38053;53.100;6.078;2023-02-19T10:00:46;7.10;99.90
52044;DHT22;38053;53.100;6.078;2023-02-19T10:03:21;7.10;99.90
52044;DHT22;38053;53.100;6.078;2023-02-19T10:05:47;7.00;99.90
52044;DHT22;38053;53.100;6.078;2023-02-19T10:08:18;7.00;99.90
52044;DHT22;38053;53.100;6.078;2023-02-19T10:10:44;6.90;99.90
52044;DHT22;38053;53.100;6.078;2023-02-19T10:13:17;6.80;99.90
52044;DHT22;38053;53.100;6.078;2023-02-19T10:16:08;6.90;99.90
52044;DHT22;38053;53.100;6.078;2023-02-19T10:18:42;7.00;99.90
52044;DHT22;38053;53.100;6.078;2023-02-19T10:21:15;7.20;99.90
52044;DHT22;38053;53.100;6.078;2023-02-19T10:23:45;7.40;99.90
52044;DHT22;38053;53.100;6.078;2023-02-19T10:26:12;7.50;99.90
52044;DHT22;38053;53.100;6.078;2023-02-19T10:28:38;7.70;99.90
52044;DHT22;38053;53.100;6.078;2023-02-19T10:31:10;7.90;99.90
52044;DHT22;38053;53.100;6.078;2023-02-19T10:38:51;8.40;99.90
52044;DHT22;38053;53.100;6.078;2023-02-19T10:41:20;8.40;99.90
52044;DHT22;38053;53.100;6.078;2023-02-19T10:44:13;8.40;99.90
52044;DHT22;38053;53.100;6.078;2023-02-19T10:46:45;8.40;99.90
52044;DHT22;38053;53.100;6.078;2023-02-19T10:49:22;8.30;99.90
52044;DHT22;38053;53.100;6.078;2023-02-19T10:51:51;8.20;99.90
52044;DHT22;38053;53.100;6.078;2023-02-19T10:54:41;8.20;99.90
52044;DHT22;38053;53.100;6.078;2023-02-19T10:59:52;8.00;99.90
52044;DHT22;38053;53.100;6.078;2023-02-19T11:02:22;8.00;99.90
52044;DHT22;38053;53.100;6.078;2023-02-19T11:07:44;8.00;99.90
52044;DHT22;38053;53.100;6.078;2023-02-19T11:12:55;8.00;99.90
52044;DHT22;38053;53.100;6.078;2023-02-19T11:15:33;8.10;99.90
52044;DHT22;38053;53.100;6.078;2023-02-19T11:20:49;8.10;99.90
52044;DHT22;38053;53.100;6.078;2023-02-19T11:23:35;8.20;99.90
52044;DHT22;38053;53.100;6.078;2023-02-19T11:26:06;8.20;99.90
52044;DHT22;38053;53.100;6.078;2023-02-19T11:28:42;8.20;99.90
52044;DHT22;38053;53.100;6.078;2023-02-19T11:31:22;8.30;99.90
52044;DHT22;38053;53.100;6.078;2023-02-19T11:36:29;8.70;99.90
52044;DHT22;38053;53.100;6.078;2023-02-19T11:39:12;8.90;99.90
52044;DHT22;38053;53.100;6.078;2023-02-19T11:51:04;10.80;99.90
52044;DHT22;38053;53.100;6.078;2023-02-19T11:53:44;10.40;99.90
52044;DHT22;38053;53.100;6.078;2023-02-19T11:56:33;10.20;99.90
52044;DHT22;38053;53.100;6.078;2023-02-19T11:59:22;9.60;99.90
52044;DHT22;38053;53.100;6.078;2023-02-19T12:35:10;9.00;99.90
52044;DHT22;38053;53.100;6.078;2023-02-19T12:43:19;9.70;99.90
52044;DHT22;38053;53.100;6.078;2023-02-19T12:54:56;9.00;99.90
52044;DHT22;38053;53.100;6.078;2023-02-19T12:57:14;9.10;99.90
52044;DHT22;38053;53.100;6.078;2023-02-19T13:05:45;9.20;99.90
52044;DHT22;38053;53.100;6.078;2023-02-19T13:08:20;9.20;99.90
52044;DHT22;38053;53.100;6.078;2023-02-19T13:11:00;9.10;99.90
52044;DHT22;38053;53.100;6.078;2023-02-19T13:13:42;9.00;99.90
52044;DHT22;38053;53.100;6.078;2023-02-19T13:16:10;8.90;99.90
52044;DHT22;38053;53.100;6.078;2023-02-19T13:18:45;8.80;99.90
52044;DHT22;38053;53.100;6.078;2023-02-19T13:21:17;8.70;99.90
52044;DHT22;38053;53.100;6.078;2023-02-19T13:24:12;8.60;99.90
52044;DHT22;38053;53.100;6.078;2023-02-19T13:38:00;8.30;99.90
52044;DHT22;38053;53.100;6.078;2023-02-19T13:41:14;8.30;99.90
52044;DHT22;38053;53.100;6.078;2023-02-19T13:43:24;8.40;99.90
52044;DHT22;38053;53.100;6.078;2023-02-19T13:45:58;8.50;99.90
52044;DHT22;38053;53.100;6.078;2023-02-19T13:48:32;8.50;99.90
52044;DHT22;38053;53.100;6.078;2023-02-19T14:28:39;9.90;99.90
52044;DHT22;38053;53.100;6.078;2023-02-19T14:30:54;9.70;99.90
52044;DHT22;38053;53.100;6.078;2023-02-19T14:33:31;9.40;99.90
52044;DHT22;38053;53.100;6.078;2023-02-19T14:41:24;9.00;99.90
52044;DHT22;38053;53.100;6.078;2023-02-19T14:44:00;9.00;99.90
52044;DHT22;38053;53.100;6.078;2023-02-19T14:49:27;8.90;99.90
52044;DHT22;38053;53.100;6.078;2023-02-19T14:51:59;8.90;99.90
52044;DHT22;38053;53.100;6.078;2023-02-19T14:57:21;8.80;99.90
52044;DHT22;38053;53.100;6.078;2023-02-19T14:59:53;8.90;99.90
52044;DHT22;38053;53.100;6.078;2023-02-19T15:02:19;9.00;99.90
52044;DHT22;38053;53.100;6.078;2023-02-19T15:04:46;9.00;99.90
52044;DHT22;38053;53.100;6.078;2023-02-19T15:07:16;9.00;99.90
52044;DHT22;38053;53.100;6.078;2023-02-19T15:09:47;9.00;99.90
52044;DHT22;38053;53.100;6.078;2023-02-19T15:12:21;8.80;99.90
52044;DHT22;38053;53.100;6.078;2023-02-19T15:14:50;8.80;99.90
52044;DHT22;38053;53.100;6.078;2023-02-19T15:17:30;8.90;99.90
52044;DHT22;38053;53.100;6.078;2023-02-19T15:20:00;9.10;99.90
52044;DHT22;38053;53.100;6.078;2023-02-19T15:22:29;9.20;99.90
52044;DHT22;38053;53.100;6.078;2023-02-19T15:25:03;9.10;99.90
52044;DHT22;38053;53.100;6.078;2023-02-19T15:27:33;9.10;99.90
52044;DHT22;38053;53.100;6.078;2023-02-19T15:30:14;8.90;99.90
52044;DHT22;38053;53.100;6.078;2023-02-19T15:32:51;8.80;99.90
52044;DHT22;38053;53.100;6.078;2023-02-19T15:35:20;8.60;99.90
52044;DHT22;38053;53.100;6.078;2023-02-19T15:37:49;8.50;99.90
52044;DHT22;38053;53.100;6.078;2023-02-19T15:40:16;8.40;99.90
52044;DHT22;38053;53.100;6.078;2023-02-19T15:42:47;8.40;99.90
52044;DHT22;38053;53.100;6.078;2023-02-19T15:50:31;8.10;99.90
52044;DHT22;38053;53.100;6.078;2023-02-19T15:53:08;8.00;99.90
52044;DHT22;38053;53.100;6.078;2023-02-19T15:55:47;7.80;99.90
52044;DHT22;38053;53.100;6.078;2023-02-19T16:03:43;7.60;99.90
52044;DHT22;38053;53.100;6.078;2023-02-19T16:06:14;7.60;99.90
52044;DHT22;38053;53.100;6.078;2023-02-19T16:08:43;7.50;99.90
52044;DHT22;38053;53.100;6.078;2023-02-19T16:11:32;7.50;99.90
52044;DHT22;38053;53.100;6.078;2023-02-19T16:14:51;7.40;99.90
52044;DHT22;38053;53.100;6.078;2023-02-19T16:17:13;7.40;99.90
52044;DHT22;38053;53.100;6.078;2023-02-19T16:19:50;7.20;99.90
52044;DHT22;38053;53.100;6.078;2023-02-19T16:22:23;7.20;99.90
52044;DHT22;38053;53.100;6.078;2023-02-19T16:25:02;7.10;99.90
52044;DHT22;38053;53.100;6.078;2023-02-19T16:30:26;7.00;99.90
52044;DHT22;38053;53.100;6.078;2023-02-19T16:43:57;6.70;99.90
52044;DHT22;38053;53.100;6.078;2023-02-19T16:46:23;6.60;99.90
52044;DHT22;38053;53.100;6.078;2023-02-19T16:48:49;6.60;99.90
52044;DHT22;38053;53.100;6.078;2023-02-19T16:51:26;6.60;99.90
52044;DHT22;38053;53.100;6.078;2023-02-19T16:53:55;6.50;99.90
52044;DHT22;38053;53.100;6.078;2023-02-19T16:56:23;6.50;99.90
52044;DHT22;38053;53.100;6.078;2023-02-19T16:58:49;6.40;99.90
52044;DHT22;38053;53.100;6.078;2023-02-19T17:01:16;6.40;99.90
52044;DHT22;38053;53.100;6.078;2023-02-19T17:03:44;6.30;99.90
52044;DHT22;38053;53.100;6.078;2023-02-19T17:06:11;6.30;99.90
52044;DHT22;38053;53.100;6.078;2023-02-19T17:08:47;6.20;99.90
52044;DHT22;38053;53.100;6.078;2023-02-19T17:11:17;6.20;99.90
52044;DHT22;38053;53.100;6.078;2023-02-19T17:13:45;6.20;99.90
52044;DHT22;38053;53.100;6.078;2023-02-19T17:16:26;6.10;99.90
52044;DHT22;38053;53.100;6.078;2023-02-19T17:18:53;6.10;99.90
52044;DHT22;38053;53.100;6.078;2023-02-19T17:21:25;6.10;99.90
52044;DHT22;38053;53.100;6.078;2023-02-19T17:23:52;6.10;99.90
52044;DHT22;38053;53.100;6.078;2023-02-19T17:26:29;6.00;99.90
52044;DHT22;38053;53.100;6.078;2023-02-19T17:28:59;6.10;99.90
52044;DHT22;38053;53.100;6.078;2023-02-19T17:31:25;6.10;99.90
52044;DHT22;38053;53.100;6.078;2023-02-19T17:33:51;6.10;99.90
52044;DHT22;38053;53.100;6.078;2023-02-19T17:36:23;6.10;99.90
52044;DHT22;38053;53.100;6.078;2023-02-19T17:38:52;6.10;99.90
52044;DHT22;38053;53.100;6.078;2023-02-19T17:41:18;6.00;99.90
52044;DHT22;38053;53.100;6.078;2023-02-19T17:43:44;6.10;99.90
52044;DHT22;38053;53.100;6.078;2023-02-19T17:46:25;6.10;99.90
52044;DHT22;38053;53.100;6.078;2023-02-19T17:48:52;6.00;99.90
52044;DHT22;38053;53.100;6.078;2023-02-19T17:51:19;6.00;99.90
52044;DHT22;38053;53.100;6.078;2023-02-19T17:53:46;6.00;99.90
52044;DHT22;38053;53.100;6.078;2023-02-19T17:56:20;6.00;99.90
52044;DHT22;38053;53.100;6.078;2023-02-19T17:58:49;6.00;99.90
52044;DHT22;38053;53.100;6.078;2023-02-19T18:01:15;6.00;99.90
52044;DHT22;38053;53.100;6.078;2023-02-19T18:03:41;6.00;99.90
52044;DHT22;38053;53.100;6.078;2023-02-19T18:06:07;6.00;99.90
52044;DHT22;38053;53.100;6.078;2023-02-19T18:08:33;5.90;99.90
52044;DHT22;38053;53.100;6.078;2023-02-19T18:10:59;5.90;99.90
52044;DHT22;38053;53.100;6.078;2023-02-19T18:13:25;6.00;99.90
52044;DHT22;38053;53.100;6.078;2023-02-19T18:15:51;6.00;99.90
52044;DHT22;38053;53.100;6.078;2023-02-19T18:18:18;6.00;99.90
52044;DHT22;38053;53.100;6.078;2023-02-19T18:20:45;6.00;99.90
52044;DHT22;38053;53.100;6.078;2023-02-19T18:23:11;6.00;99.90
52044;DHT22;38053;53.100;6.078;2023-02-19T18:25:37;6.00;99.90
52044;DHT22;38053;53.100;6.078;2023-02-19T18:28:03;5.90;99.90
52044;DHT22;38053;53.100;6.078;2023-02-19T18:30:29;5.90;99.90
52044;DHT22;38053;53.100;6.078;2023-02-19T18:32:54;6.00;99.90
52044;DHT22;38053;53.100;6.078;2023-02-19T18:35:21;5.90;99.90
52044;DHT22;38053;53.100;6.078;2023-02-19T18:37:53;6.00;99.90
52044;DHT22;38053;53.100;6.078;2023-02-19T18:40:20;6.00;99.90
52044;DHT22;38053;53.100;6.078;2023-02-19T18:42:47;6.00;99.90
52044;DHT22;38053;53.100;6.078;2023-02-19T18:45:13;5.90;99.90
52044;DHT22;38053;53.100;6.078;2023-02-19T18:47:39;6.00;99.90
52044;DHT22;38053;53.100;6.078;2023-02-19T18:50:05;5.90;99.90
52044;DHT22;38053;53.100;6.078;2023-02-19T18:52:33;5.90;99.90
52044;DHT22;38053;53.100;6.078;2023-02-19T18:54:58;5.90;99.90
52044;DHT22;38053;53.100;6.078;2023-02-19T18:57:25;5.90;99.90
52044;DHT22;38053;53.100;6.078;2023-02-19T18:59:52;5.90;99.90
52044;DHT22;38053;53.100;6.078;2023-02-19T19:02:29;5.80;99.90
52044;DHT22;38053;53.100;6.078;2023-02-19T19:05:01;5.80;99.90
52044;DHT22;38053;53.100;6.078;2023-02-19T19:07:30;5.80;99.90
52044;DHT22;38053;53.100;6.078;2023-02-19T19:09:58;5.80;99.90
52044;DHT22;38053;53.100;6.078;2023-02-19T19:12:24;5.70;99.90
52044;DHT22;38053;53.100;6.078;2023-02-19T19:14:53;5.70;99.90
52044;DHT22;38053;53.100;6.078;2023-02-19T19:17:21;5.70;99.90
52044;DHT22;38053;53.100;6.078;2023-02-19T19:19:47;5.70;99.90
52044;DHT22;38053;53.100;6.078;2023-02-19T19:22:13;5.70;99.90
52044;DHT22;38053;53.100;6.078;2023-02-19T19:24:41;5.70;99.90
52044;DHT22;38053;53.100;6.078;2023-02-19T19:27:12;5.70;99.90
52044;DHT22;38053;53.100;6.078;2023-02-19T19:29:43;5.70;99.90
52044;DHT22;38053;53.100;6.078;2023-02-19T19:32:12;5.70;99.90
52044;DHT22;38053;53.100;6.078;2023-02-19T19:34:40;5.60;99.90
52044;DHT22;38053;53.100;6.078;2023-02-19T19:37:12;5.60;99.90
52044;DHT22;38053;53.100;6.078;2023-02-19T19:39:43;5.60;99.90
52044;DHT22;38053;53.100;6.078;2023-02-19T19:42:08;5.60;99.90
52044;DHT22;38053;53.100;6.078;2023-02-19T19:44:36;5.60;99.90
52044;DHT22;38053;53.100;6.078;2023-02-19T19:47:02;5.60;99.90
52044;DHT22;38053;53.100;6.078;2023-02-19T19:49:27;5.60;99.90
52044;DHT22;38053;53.100;6.078;2023-02-19T19:51:53;5.50;99.90
52044;DHT22;38053;53.100;6.078;2023-02-19T19:54:19;5.50;99.90
52044;DHT22;38053;53.100;6.078;2023-02-19T19:56:46;5.40;99.90
52044;DHT22;38053;53.100;6.078;2023-02-19T19:59:16;5.40;99.90
52044;DHT22;38053;53.100;6.078;2023-02-19T20:01:52;5.40;99.90
52044;DHT22;38053;53.100;6.078;2023-02-19T20:04:21;5.30;99.90
52044;DHT22;38053;53.100;6.078;2023-02-19T20:06:47;5.30;99.90
52044;DHT22;38053;53.100;6.078;2023-02-19T20:09:13;5.20;99.90
52044;DHT22;38053;53.100;6.078;2023-02-19T20:11:49;5.20;99.90
52044;DHT22;38053;53.100;6.078;2023-02-19T20:14:15;5.20;99.90
52044;DHT22;38053;53.100;6.078;2023-02-19T20:16:41;5.20;99.90
52044;DHT22;38053;53.100;6.078;2023-02-19T20:19:07;5.20;99.90
52044;DHT22;38053;53.100;6.078;2023-02-19T20:22:08;5.20;99.90
52044;DHT22;38053;53.100;6.078;2023-02-19T20:24:39;5.30;99.90
52044;DHT22;38053;53.100;6.078;2023-02-19T20:27:05;5.20;99.90
52044;DHT22;38053;53.100;6.078;2023-02-19T20:29:33;5.20;99.90
52044;DHT22;38053;53.100;6.078;2023-02-19T20:31:59;5.20;99.90
52044;DHT22;38053;53.100;6.078;2023-02-19T20:34:27;5.20;99.90
52044;DHT22;38053;53.100;6.078;2023-02-19T20:36:56;5.20;99.90
52044;DHT22;38053;53.100;6.078;2023-02-19T20:39:22;5.20;99.90
52044;DHT22;38053;53.100;6.078;2023-02-19T20:41:53;5.10;99.90
52044;DHT22;38053;53.100;6.078;2023-02-19T20:44:18;5.10;99.90
52044;DHT22;38053;53.100;6.078;2023-02-19T20:46:47;5.10;99.90
52044;DHT22;38053;53.100;6.078;2023-02-19T20:49:14;5.00;99.90
52044;DHT22;38053;53.100;6.078;2023-02-19T20:51:44;5.00;99.90
52044;DHT22;38053;53.100;6.078;2023-02-19T20:54:10;5.00;99.90
52044;DHT22;38053;53.100;6.078;2023-02-19T20:56:36;5.00;99.90
52044;DHT22;38053;53.100;6.078;2023-02-19T20:59:02;5.00;99.90
52044;DHT22;38053;53.100;6.078;2023-02-19T21:01:28;5.00;99.90
52044;DHT22;38053;53.100;6.078;2023-02-19T21:03:53;5.00;99.90
52044;DHT22;38053;53.100;6.078;2023-02-19T21:06:20;5.00;99.90
52044;DHT22;38053;53.100;6.078;2023-02-19T21:08:48;5.00;99.90
52044;DHT22;38053;53.100;6.078;2023-02-19T21:11:14;5.00;99.90
52044;DHT22;38053;53.100;6.078;2023-02-19T21:13:41;5.00;99.90
52044;DHT22;38053;53.100;6.078;2023-02-19T21:16:07;5.00;99.90
52044;DHT22;38053;53.100;6.078;2023-02-19T21:18:33;5.00;99.90
52044;DHT22;38053;53.100;6.078;2023-02-19T21:20:58;5.00;99.90
52044;DHT22;38053;53.100;6.078;2023-02-19T21:23:24;5.00;99.90
52044;DHT22;38053;53.100;6.078;2023-02-19T21:25:50;5.00;99.90
52044;DHT22;38053;53.100;6.078;2023-02-19T21:28:16;5.00;99.90
52044;DHT22;38053;53.100;6.078;2023-02-19T21:30:42;5.00;99.90
52044;DHT22;38053;53.100;6.078;2023-02-19T21:33:08;5.10;99.90
52044;DHT22;38053;53.100;6.078;2023-02-19T21:35:34;5.10;99.90
52044;DHT22;38053;53.100;6.078;2023-02-19T21:37:59;5.10;99.90
52044;DHT22;38053;53.100;6.078;2023-02-19T21:40:25;5.10;99.90
52044;DHT22;38053;53.100;6.078;2023-02-19T21:42:53;5.10;99.90
52044;DHT22;38053;53.100;6.078;2023-02-19T21:45:19;5.10;99.90
52044;DHT22;38053;53.100;6.078;2023-02-19T21:47:44;5.10;99.90
52044;DHT22;38053;53.100;6.078;2023-02-19T21:50:10;5.20;99.90
52044;DHT22;38053;53.100;6.078;2023-02-19T21:52:36;5.20;99.90
52044;DHT22;38053;53.100;6.078;2023-02-19T21:55:02;5.20;99.90
52044;DHT22;38053;53.100;6.078;2023-02-19T21:57:27;5.20;99.90
52044;DHT22;38053;53.100;6.078;2023-02-19T21:59:53;5.20;99.90
52044;DHT22;38053;53.100;6.078;2023-02-19T22:02:19;5.20;99.90
52044;DHT22;38053;53.100;6.078;2023-02-19T22:04:54;5.20;99.90
52044;DHT22;38053;53.100;6.078;2023-02-19T22:07:20;5.20;99.90
52044;DHT22;38053;53.100;6.078;2023-02-19T22:09:48;5.30;99.90
52044;DHT22;38053;53.100;6.078;2023-02-19T22:12:14;5.30;99.90
52044;DHT22;38053;53.100;6.078;2023-02-19T22:14:40;5.30;99.90
52044;DHT22;38053;53.100;6.078;2023-02-19T22:17:06;5.30;99.90
52044;DHT22;38053;53.100;6.078;2023-02-19T22:19:31;5.30;99.90
52044;DHT22;38053;53.100;6.078;2023-02-19T22:21:57;5.40;99.90
52044;DHT22;38053;53.100;6.078;2023-02-19T22:24:23;5.40;99.90
52044;DHT22;38053;53.100;6.078;2023-02-19T22:26:49;5.40;99.90
52044;DHT22;38053;53.100;6.078;2023-02-19T22:29:18;5.40;99.90
52044;DHT22;38053;53.100;6.078;2023-02-19T22:31:43;5.40;99.90
52044;DHT22;38053;53.100;6.078;2023-02-19T22:34:10;5.40;99.90
52044;DHT22;38053;53.100;6.078;2023-02-19T22:36:36;5.40;99.90
52044;DHT22;38053;53.100;6.078;2023-02-19T22:39:06;5.40;99.90
52044;DHT22;38053;53.100;6.078;2023-02-19T22:41:32;5.40;99.90
52044;DHT22;38053;53.100;6.078;2023-02-19T22:43:58;5.50;99.90
52044;DHT22;38053;53.100;6.078;2023-02-19T22:46:27;5.40;99.90
52044;DHT22;38053;53.100;6.078;2023-02-19T22:48:53;5.50;99.90
52044;DHT22;38053;53.100;6.078;2023-02-19T22:51:21;5.50;99.90
52044;DHT22;38053;53.100;6.078;2023-02-19T22:53:53;5.40;99.90
52044;DHT22;38053;53.100;6.078;2023-02-19T22:56:21;5.50;99.90
52044;DHT22;38053;53.100;6.078;2023-02-19T22:58:47;5.50;99.90
52044;DHT22;38053;53.100;6.078;2023-02-19T23:01:14;5.50;99.90
52044;DHT22;38053;53.100;6.078;2023-02-19T23:03:48;5.50;99.90
52044;DHT22;38053;53.100;6.078;2023-02-19T23:06:15;5.50;99.90
52044;DHT22;38053;53.100;6.078;2023-02-19T23:08:41;5.50;99.90
52044;DHT22;38053;53.100;6.078;2023-02-19T23:11:11;5.50;99.90
52044;DHT22;38053;53.100;6.078;2023-02-19T23:13:40;5.50;99.90
52044;DHT22;38053;53.100;6.078;2023-02-19T23:16:06;5.50;99.90
52044;DHT22;38053;53.100;6.078;2023-02-19T23:18:32;5.60;99.90
52044;DHT22;38053;53.100;6.078;2023-02-19T23:20:58;5.60;99.90
52044;DHT22;38053;53.100;6.078;2023-02-19T23:23:23;5.60;99.90
52044;DHT22;38053;53.100;6.078;2023-02-19T23:25:49;5.60;99.90
52044;DHT22;38053;53.100;6.078;2023-02-19T23:28:15;5.70;99.90
52044;DHT22;38053;53.100;6.078;2023-02-19T23:30:41;5.70;99.90
52044;DHT22;38053;53.100;6.078;2023-02-19T23:33:06;5.70;99.90
52044;DHT22;38053;53.100;6.078;2023-02-19T23:35:32;5.80;99.90
52044;DHT22;38053;53.100;6.078;2023-02-19T23:37:58;5.80;99.90
52044;DHT22;38053;53.100;6.078;2023-02-19T23:40:30;5.90;99.90
52044;DHT22;38053;53.100;6.078;2023-02-19T23:42:56;5.90;99.90
52044;DHT22;38053;53.100;6.078;2023-02-19T23:45:22;6.00;99.90
52044;DHT22;38053;53.100;6.078;2023-02-19T23:47:48;6.00;99.90
52044;DHT22;38053;53.100;6.078;2023-02-19T23:50:14;6.00;99.90
52044;DHT22;38053;53.100;6.078;2023-02-19T23:52:40;6.00;99.90
52044;DHT22;38053;53.100;6.078;2023-02-19T23:55:07;6.10;99.90
52044;DHT22;38053;53.100;6.078;2023-02-19T23:57:37;6.00;99.90
